TAM3222 SBGR-SBVT
Flight info
| Callsign | TAM3222 |
|---|---|
| Flight time | 1h 3m |
| Altitude | 37000 |
| Route | UREMI UZ42 IMDAB DCT SEGLI DCT TODET |
| Aircraft | A320/M-SDE3FGHIRWY/LB1 |
Departure
| Time | 2026-05-07 12:52 |
|---|---|
| Airport | São Paulo/Guarulhos–Governor André Franco Montoro International Airport (SBGR) |
Arrival
| Time | 2026-05-07 13:56 |
|---|---|
| Airport | Eurico de Aguiar Salles International Airport (SBVT) |
| Time | Latitude | Longitude | Altitude | Speed | Heading |
|---|---|---|---|---|---|
| 2026-05-07 12:13 | -23.42811 | -46.48243 | 2469 ft | 0 kts | 266° |
| 2026-05-07 12:46 | -23.42811 | -46.48239 | 2469 ft | 2 kts | 266° |
| 2026-05-07 12:46 | -23.42810 | -46.48223 | 2468 ft | 2 kts | 266° |
| 2026-05-07 12:46 | -23.42809 | -46.48206 | 2469 ft | 2 kts | 265° |
| 2026-05-07 12:46 | -23.42808 | -46.48196 | 2469 ft | 2 kts | 254° |
| 2026-05-07 12:47 | -23.42800 | -46.48183 | 2469 ft | 2 kts | 211° |
| 2026-05-07 12:47 | -23.42787 | -46.48179 | 2469 ft | 0 kts | 178° |
| 2026-05-07 12:47 | -23.42781 | -46.48179 | 2469 ft | 1 kts | 172° |
| 2026-05-07 12:47 | -23.42779 | -46.48180 | 2469 ft | 0 kts | 173° |
| 2026-05-07 12:49 | -23.42780 | -46.48180 | 2468 ft | 0 kts | 173° |
| 2026-05-07 12:49 | -23.42793 | -46.48178 | 2468 ft | 2 kts | 171° |
| 2026-05-07 12:49 | -23.42822 | -46.48168 | 2468 ft | 5 kts | 159° |
| 2026-05-07 12:50 | -23.42865 | -46.48152 | 2468 ft | 7 kts | 167° |
| 2026-05-07 12:50 | -23.42919 | -46.48145 | 2468 ft | 8 kts | 174° |
| 2026-05-07 12:50 | -23.42981 | -46.48138 | 2468 ft | 9 kts | 174° |
| 2026-05-07 12:50 | -23.43052 | -46.48132 | 2468 ft | 10 kts | 175° |
| 2026-05-07 12:51 | -23.43129 | -46.48120 | 2468 ft | 11 kts | 167° |
| 2026-05-07 12:51 | -23.43210 | -46.48095 | 2468 ft | 12 kts | 163° |
| 2026-05-07 12:51 | -23.43298 | -46.48067 | 2468 ft | 13 kts | 162° |
| 2026-05-07 12:51 | -23.43336 | -46.47989 | 2468 ft | 13 kts | 76° |
| 2026-05-07 12:52 | -23.43277 | -46.47768 | 2468 ft | 62 kts | 73° |
| 2026-05-07 12:52 | -23.43088 | -46.47073 | 2469 ft | 127 kts | 73° |
| 2026-05-07 12:52 | -23.42788 | -46.45959 | 2536 ft | 172 kts | 73° |
| 2026-05-07 12:52 | -23.42439 | -46.44719 | 3163 ft | 172 kts | 71° |
| 2026-05-07 12:53 | -23.42047 | -46.43431 | 3591 ft | 191 kts | 69° |
| 2026-05-07 12:53 | -23.41614 | -46.41985 | 4028 ft | 211 kts | 71° |
| 2026-05-07 12:53 | -23.41157 | -46.40379 | 4444 ft | 234 kts | 71° |
| 2026-05-07 12:53 | -23.40659 | -46.38602 | 4990 ft | 253 kts | 71° |
| 2026-05-07 12:54 | -23.40265 | -46.36676 | 5511 ft | 273 kts | 84° |
| 2026-05-07 12:54 | -23.40479 | -46.34555 | 6011 ft | 296 kts | 103° |
| 2026-05-07 12:54 | -23.41160 | -46.32388 | 6502 ft | 315 kts | 107° |
| 2026-05-07 12:54 | -23.41935 | -46.30094 | 6934 ft | 333 kts | 108° |
| 2026-05-07 12:55 | -23.42749 | -46.27681 | 7319 ft | 351 kts | 107° |
| 2026-05-07 12:55 | -23.43533 | -46.25101 | 7653 ft | 367 kts | 104° |
| 2026-05-07 12:55 | -23.44169 | -46.22393 | 8215 ft | 373 kts | 100° |
| 2026-05-07 12:55 | -23.44678 | -46.19612 | 8903 ft | 376 kts | 98° |
| 2026-05-07 12:56 | -23.45164 | -46.16822 | 9563 ft | 379 kts | 98° |
| 2026-05-07 12:56 | -23.45651 | -46.13996 | 10213 ft | 381 kts | 98° |
| 2026-05-07 12:56 | -23.46142 | -46.11145 | 10831 ft | 384 kts | 98° |
| 2026-05-07 12:56 | -23.46630 | -46.08306 | 11384 ft | 387 kts | 99° |
| 2026-05-07 12:57 | -23.47129 | -46.05418 | 12147 ft | 383 kts | 99° |
| 2026-05-07 12:57 | -23.47611 | -46.02623 | 13097 ft | 373 kts | 99° |
| 2026-05-07 12:57 | -23.48082 | -45.99893 | 14063 ft | 363 kts | 99° |
| 2026-05-07 12:57 | -23.48538 | -45.97258 | 15024 ft | 353 kts | 100° |
| 2026-05-07 12:58 | -23.48916 | -45.94685 | 15985 ft | 342 kts | 94° |
| 2026-05-07 12:58 | -23.48864 | -45.92165 | 16908 ft | 333 kts | 83° |
| 2026-05-07 12:58 | -23.48405 | -45.89713 | 17596 ft | 332 kts | 76° |
| 2026-05-07 12:58 | -23.47805 | -45.87257 | 18134 ft | 337 kts | 75° |
| 2026-05-07 12:59 | -23.47187 | -45.84797 | 18614 ft | 342 kts | 75° |
| 2026-05-07 12:59 | -23.46563 | -45.82304 | 19118 ft | 346 kts | 75° |
| 2026-05-07 12:59 | -23.45931 | -45.79761 | 19610 ft | 351 kts | 76° |
| 2026-05-07 12:59 | -23.45294 | -45.77183 | 20098 ft | 356 kts | 76° |
| 2026-05-07 13:00 | -23.44649 | -45.74565 | 20582 ft | 361 kts | 76° |
| 2026-05-07 13:00 | -23.43996 | -45.71909 | 21056 ft | 365 kts | 76° |
| 2026-05-07 13:00 | -23.43337 | -45.69230 | 21553 ft | 369 kts | 76° |
| 2026-05-07 13:00 | -23.42671 | -45.66523 | 22027 ft | 374 kts | 76° |
| 2026-05-07 13:01 | -23.42001 | -45.63795 | 22507 ft | 378 kts | 76° |
| 2026-05-07 13:01 | -23.41313 | -45.61005 | 22977 ft | 382 kts | 76° |
| 2026-05-07 13:01 | -23.40625 | -45.58218 | 23464 ft | 386 kts | 76° |
| 2026-05-07 13:01 | -23.39923 | -45.55379 | 23927 ft | 390 kts | 77° |
| 2026-05-07 13:02 | -23.39219 | -45.52520 | 24393 ft | 393 kts | 77° |
| 2026-05-07 13:02 | -23.38560 | -45.49654 | 24859 ft | 396 kts | 79° |
| 2026-05-07 13:02 | -23.37934 | -45.46728 | 25322 ft | 399 kts | 79° |
| 2026-05-07 13:02 | -23.37312 | -45.43795 | 25752 ft | 402 kts | 80° |
| 2026-05-07 13:03 | -23.36678 | -45.40806 | 26162 ft | 406 kts | 80° |
| 2026-05-07 13:03 | -23.36043 | -45.37825 | 26583 ft | 409 kts | 80° |
| 2026-05-07 13:03 | -23.35398 | -45.34801 | 27020 ft | 411 kts | 80° |
| 2026-05-07 13:03 | -23.34746 | -45.31764 | 27417 ft | 414 kts | 80° |
| 2026-05-07 13:04 | -23.34096 | -45.28721 | 27821 ft | 417 kts | 80° |
| 2026-05-07 13:04 | -23.33430 | -45.25616 | 28220 ft | 419 kts | 81° |
| 2026-05-07 13:04 | -23.32766 | -45.22528 | 28593 ft | 422 kts | 81° |
| 2026-05-07 13:04 | -23.32099 | -45.19418 | 28963 ft | 425 kts | 81° |
| 2026-05-07 13:05 | -23.31433 | -45.16321 | 29333 ft | 427 kts | 81° |
| 2026-05-07 13:05 | -23.30756 | -45.13175 | 29687 ft | 430 kts | 81° |
| 2026-05-07 13:05 | -23.30068 | -45.09979 | 30035 ft | 433 kts | 81° |
| 2026-05-07 13:05 | -23.29381 | -45.06789 | 30375 ft | 435 kts | 81° |
| 2026-05-07 13:06 | -23.28692 | -45.03601 | 30712 ft | 438 kts | 81° |
| 2026-05-07 13:06 | -23.27996 | -45.00380 | 31047 ft | 440 kts | 81° |
| 2026-05-07 13:06 | -23.27289 | -44.97116 | 31352 ft | 443 kts | 81° |
| 2026-05-07 13:06 | -23.26590 | -44.93890 | 31650 ft | 446 kts | 81° |
| 2026-05-07 13:07 | -23.25877 | -44.90601 | 31942 ft | 448 kts | 81° |
| 2026-05-07 13:07 | -23.25163 | -44.87317 | 32227 ft | 451 kts | 81° |
| 2026-05-07 13:07 | -23.24435 | -44.83967 | 32510 ft | 453 kts | 81° |
| 2026-05-07 13:07 | -23.23712 | -44.80650 | 32814 ft | 455 kts | 81° |
| 2026-05-07 13:08 | -23.22977 | -44.77276 | 33097 ft | 457 kts | 81° |
| 2026-05-07 13:08 | -23.22245 | -44.73923 | 33392 ft | 459 kts | 82° |
| 2026-05-07 13:08 | -23.21509 | -44.70547 | 33697 ft | 460 kts | 82° |
| 2026-05-07 13:08 | -23.20776 | -44.67200 | 33987 ft | 462 kts | 81° |
| 2026-05-07 13:09 | -23.19928 | -44.63797 | 34243 ft | 466 kts | 78° |
| 2026-05-07 13:09 | -23.18893 | -44.60458 | 34510 ft | 470 kts | 74° |
| 2026-05-07 13:09 | -23.17669 | -44.57176 | 34809 ft | 473 kts | 71° |
| 2026-05-07 13:09 | -23.16365 | -44.53901 | 35179 ft | 472 kts | 71° |
| 2026-05-07 13:10 | -23.15050 | -44.50631 | 35532 ft | 471 kts | 71° |
| 2026-05-07 13:10 | -23.13743 | -44.47375 | 35796 ft | 472 kts | 71° |
| 2026-05-07 13:10 | -23.12432 | -44.44104 | 35997 ft | 474 kts | 71° |
| 2026-05-07 13:10 | -23.11134 | -44.40859 | 36210 ft | 475 kts | 71° |
| 2026-05-07 13:11 | -23.09805 | -44.37533 | 36427 ft | 476 kts | 71° |
| 2026-05-07 13:11 | -23.08499 | -44.34267 | 36592 ft | 479 kts | 71° |
| 2026-05-07 13:11 | -23.07164 | -44.30926 | 36695 ft | 481 kts | 71° |
| 2026-05-07 13:11 | -23.05841 | -44.27616 | 36822 ft | 483 kts | 71° |
| 2026-05-07 13:12 | -23.04490 | -44.24239 | 36978 ft | 485 kts | 71° |
| 2026-05-07 13:12 | -23.03157 | -44.20913 | 37047 ft | 486 kts | 71° |
| 2026-05-07 13:12 | -23.00468 | -44.14212 | 37047 ft | 485 kts | 71° |
| 2026-05-07 13:13 | -22.97786 | -44.07529 | 37048 ft | 485 kts | 71° |
| 2026-05-07 13:13 | -22.95080 | -44.00801 | 37056 ft | 485 kts | 71° |
| 2026-05-07 13:14 | -22.92394 | -43.94132 | 37061 ft | 485 kts | 71° |
| 2026-05-07 13:14 | -22.89695 | -43.87437 | 37060 ft | 485 kts | 71° |
| 2026-05-07 13:15 | -22.87007 | -43.80781 | 37067 ft | 485 kts | 71° |
| 2026-05-07 13:15 | -22.84292 | -43.74064 | 37067 ft | 485 kts | 71° |
| 2026-05-07 13:16 | -22.81601 | -43.67419 | 37070 ft | 484 kts | 71° |
| 2026-05-07 13:16 | -22.78891 | -43.60739 | 37070 ft | 484 kts | 71° |
| 2026-05-07 13:17 | -22.76193 | -43.54098 | 37070 ft | 483 kts | 71° |
| 2026-05-07 13:17 | -22.73482 | -43.47432 | 37065 ft | 483 kts | 71° |
| 2026-05-07 13:18 | -22.70780 | -43.40794 | 37073 ft | 483 kts | 71° |
| 2026-05-07 13:18 | -22.68066 | -43.34143 | 37079 ft | 483 kts | 71° |
| 2026-05-07 13:19 | -22.65361 | -43.27517 | 37092 ft | 483 kts | 71° |
| 2026-05-07 13:19 | -22.62635 | -43.20851 | 37099 ft | 483 kts | 71° |
| 2026-05-07 13:20 | -22.59925 | -43.14237 | 37101 ft | 484 kts | 71° |
| 2026-05-07 13:20 | -22.57203 | -43.07598 | 37106 ft | 483 kts | 71° |
| 2026-05-07 13:21 | -22.54485 | -43.00984 | 37102 ft | 482 kts | 71° |
| 2026-05-07 13:21 | -22.51762 | -42.94363 | 37107 ft | 482 kts | 71° |
| 2026-05-07 13:22 | -22.49039 | -42.87750 | 37099 ft | 482 kts | 71° |
| 2026-05-07 13:22 | -22.46314 | -42.81140 | 37110 ft | 482 kts | 71° |
| 2026-05-07 13:23 | -22.43591 | -42.74550 | 37122 ft | 481 kts | 71° |
| 2026-05-07 13:23 | -22.40868 | -42.67963 | 37132 ft | 481 kts | 71° |
| 2026-05-07 13:24 | -22.38160 | -42.61420 | 37137 ft | 481 kts | 71° |
| 2026-05-07 13:24 | -22.35430 | -42.54836 | 37148 ft | 480 kts | 71° |
| 2026-05-07 13:25 | -22.32697 | -42.48257 | 37159 ft | 480 kts | 71° |
| 2026-05-07 13:25 | -22.29765 | -42.41801 | 37169 ft | 483 kts | 66° |
| 2026-05-07 13:26 | -22.26110 | -42.35693 | 37184 ft | 488 kts | 58° |
| 2026-05-07 13:26 | -22.21975 | -42.29821 | 37200 ft | 489 kts | 57° |
| 2026-05-07 13:27 | -22.17870 | -42.24036 | 37198 ft | 487 kts | 57° |
| 2026-05-07 13:27 | -22.13750 | -42.18207 | 37183 ft | 487 kts | 57° |
| 2026-05-07 13:28 | -22.09667 | -42.12423 | 37167 ft | 486 kts | 57° |
| 2026-05-07 13:28 | -22.05594 | -42.06659 | 37163 ft | 486 kts | 57° |
| 2026-05-07 13:29 | -22.01501 | -42.00869 | 37160 ft | 485 kts | 57° |
| 2026-05-07 13:29 | -21.97400 | -41.95075 | 37155 ft | 485 kts | 57° |
| 2026-05-07 13:30 | -21.93315 | -41.89313 | 37147 ft | 485 kts | 57° |
| 2026-05-07 13:30 | -21.89237 | -41.83562 | 37143 ft | 485 kts | 57° |
| 2026-05-07 13:31 | -21.85129 | -41.77778 | 37150 ft | 485 kts | 57° |
| 2026-05-07 13:31 | -21.81056 | -41.72047 | 37154 ft | 485 kts | 58° |
| 2026-05-07 13:32 | -21.76982 | -41.66325 | 36676 ft | 479 kts | 58° |
| 2026-05-07 13:32 | -21.74967 | -41.63496 | 35800 ft | 482 kts | 58° |
| 2026-05-07 13:32 | -21.72929 | -41.60629 | 34855 ft | 486 kts | 57° |
| 2026-05-07 13:33 | -21.70872 | -41.57738 | 33938 ft | 488 kts | 57° |
| 2026-05-07 13:33 | -21.68804 | -41.54838 | 33050 ft | 490 kts | 57° |
| 2026-05-07 13:33 | -21.66738 | -41.51942 | 32232 ft | 491 kts | 57° |
| 2026-05-07 13:33 | -21.64662 | -41.49039 | 31673 ft | 485 kts | 57° |
| 2026-05-07 13:34 | -21.62626 | -41.46193 | 31205 ft | 477 kts | 57° |
| 2026-05-07 13:34 | -21.58620 | -41.40595 | 30133 ft | 467 kts | 57° |
| 2026-05-07 13:34 | -21.56663 | -41.37857 | 29594 ft | 462 kts | 57° |
| 2026-05-07 13:35 | -21.54712 | -41.35129 | 29053 ft | 457 kts | 56° |
| 2026-05-07 13:35 | -21.52819 | -41.32484 | 28532 ft | 452 kts | 56° |
| 2026-05-07 13:35 | -21.50870 | -41.29856 | 27987 ft | 449 kts | 52° |
| 2026-05-07 13:35 | -21.48752 | -41.27398 | 27457 ft | 446 kts | 47° |
| 2026-05-07 13:36 | -21.46478 | -41.25153 | 26913 ft | 443 kts | 43° |
| 2026-05-07 13:36 | -21.44130 | -41.23058 | 26387 ft | 439 kts | 41° |
| 2026-05-07 13:36 | -21.41756 | -41.20979 | 25861 ft | 434 kts | 41° |
| 2026-05-07 13:36 | -21.39437 | -41.18948 | 25346 ft | 429 kts | 41° |
| 2026-05-07 13:37 | -21.37142 | -41.16932 | 24833 ft | 425 kts | 41° |
| 2026-05-07 13:37 | -21.34884 | -41.14943 | 24313 ft | 421 kts | 41° |
| 2026-05-07 13:37 | -21.32616 | -41.12944 | 23781 ft | 417 kts | 41° |
| 2026-05-07 13:37 | -21.30394 | -41.10986 | 23270 ft | 412 kts | 40° |
| 2026-05-07 13:38 | -21.28197 | -41.09052 | 22760 ft | 408 kts | 40° |
| 2026-05-07 13:38 | -21.25995 | -41.07116 | 22251 ft | 405 kts | 40° |
| 2026-05-07 13:38 | -21.23835 | -41.05217 | 21765 ft | 400 kts | 40° |
| 2026-05-07 13:38 | -21.21690 | -41.03331 | 21290 ft | 396 kts | 40° |
| 2026-05-07 13:39 | -21.19583 | -41.01481 | 20810 ft | 392 kts | 40° |
| 2026-05-07 13:39 | -21.17497 | -40.99646 | 20353 ft | 387 kts | 40° |
| 2026-05-07 13:39 | -21.15419 | -40.97822 | 19894 ft | 383 kts | 40° |
| 2026-05-07 13:39 | -21.13383 | -40.96035 | 19427 ft | 379 kts | 39° |
| 2026-05-07 13:40 | -21.11339 | -40.94239 | 18984 ft | 374 kts | 39° |
| 2026-05-07 13:40 | -21.09345 | -40.92490 | 18555 ft | 369 kts | 39° |
| 2026-05-07 13:40 | -21.07382 | -40.90768 | 18106 ft | 366 kts | 39° |
| 2026-05-07 13:40 | -21.05419 | -40.89049 | 17674 ft | 361 kts | 39° |
| 2026-05-07 13:41 | -21.03472 | -40.87344 | 17417 ft | 359 kts | 39° |
| 2026-05-07 13:41 | -21.01546 | -40.85658 | 17173 ft | 357 kts | 39° |
| 2026-05-07 13:41 | -20.99633 | -40.83984 | 16931 ft | 355 kts | 39° |
| 2026-05-07 13:41 | -20.97728 | -40.82317 | 16602 ft | 354 kts | 39° |
| 2026-05-07 13:42 | -20.95832 | -40.80658 | 16201 ft | 351 kts | 39° |
| 2026-05-07 13:42 | -20.93936 | -40.78999 | 15783 ft | 349 kts | 39° |
| 2026-05-07 13:42 | -20.92066 | -40.77361 | 15344 ft | 347 kts | 39° |
| 2026-05-07 13:42 | -20.90192 | -40.75721 | 14908 ft | 345 kts | 39° |
| 2026-05-07 13:43 | -20.88334 | -40.74097 | 14472 ft | 344 kts | 39° |
| 2026-05-07 13:43 | -20.86486 | -40.72482 | 14035 ft | 342 kts | 40° |
| 2026-05-07 13:43 | -20.84660 | -40.70887 | 13602 ft | 340 kts | 40° |
| 2026-05-07 13:43 | -20.82843 | -40.69301 | 13168 ft | 337 kts | 40° |
| 2026-05-07 13:44 | -20.81117 | -40.67612 | 12743 ft | 334 kts | 46° |
| 2026-05-07 13:44 | -20.79602 | -40.65750 | 12288 ft | 332 kts | 52° |
| 2026-05-07 13:44 | -20.78233 | -40.63771 | 11835 ft | 330 kts | 54° |
| 2026-05-07 13:44 | -20.76909 | -40.61802 | 11397 ft | 327 kts | 54° |
| 2026-05-07 13:45 | -20.75596 | -40.59846 | 10946 ft | 325 kts | 54° |
| 2026-05-07 13:45 | -20.74281 | -40.57888 | 10503 ft | 322 kts | 54° |
| 2026-05-07 13:45 | -20.72980 | -40.55957 | 10067 ft | 319 kts | 54° |
| 2026-05-07 13:45 | -20.71696 | -40.54055 | 9643 ft | 316 kts | 54° |
| 2026-05-07 13:46 | -20.70409 | -40.52148 | 9218 ft | 313 kts | 54° |
| 2026-05-07 13:46 | -20.69151 | -40.50285 | 8800 ft | 310 kts | 54° |
| 2026-05-07 13:46 | -20.67894 | -40.48424 | 8373 ft | 307 kts | 54° |
| 2026-05-07 13:46 | -20.66648 | -40.46582 | 7951 ft | 305 kts | 54° |
| 2026-05-07 13:47 | -20.65417 | -40.44762 | 7537 ft | 302 kts | 54° |
| 2026-05-07 13:47 | -20.64194 | -40.42954 | 7124 ft | 299 kts | 54° |
| 2026-05-07 13:47 | -20.62987 | -40.41171 | 6716 ft | 296 kts | 54° |
| 2026-05-07 13:47 | -20.61773 | -40.39379 | 6300 ft | 294 kts | 54° |
| 2026-05-07 13:48 | -20.60583 | -40.37623 | 5892 ft | 292 kts | 54° |
| 2026-05-07 13:48 | -20.59406 | -40.35885 | 5481 ft | 289 kts | 54° |
| 2026-05-07 13:48 | -20.58221 | -40.34136 | 5067 ft | 287 kts | 54° |
| 2026-05-07 13:48 | -20.57059 | -40.32422 | 4663 ft | 285 kts | 54° |
| 2026-05-07 13:49 | -20.55912 | -40.30730 | 4286 ft | 282 kts | 54° |
| 2026-05-07 13:49 | -20.54786 | -40.29070 | 4198 ft | 267 kts | 54° |
| 2026-05-07 13:49 | -20.53733 | -40.27519 | 4138 ft | 252 kts | 54° |
| 2026-05-07 13:49 | -20.52724 | -40.26033 | 4083 ft | 239 kts | 54° |
| 2026-05-07 13:50 | -20.51632 | -40.24759 | 3993 ft | 227 kts | 32° |
| 2026-05-07 13:50 | -20.50147 | -40.24331 | 3866 ft | 223 kts | 0° |
| 2026-05-07 13:50 | -20.48627 | -40.24548 | 3720 ft | 217 kts | 354° |
| 2026-05-07 13:50 | -20.47149 | -40.24788 | 3547 ft | 210 kts | 355° |
| 2026-05-07 13:51 | -20.45727 | -40.25006 | 3386 ft | 203 kts | 355° |
| 2026-05-07 13:51 | -20.44336 | -40.25216 | 3237 ft | 196 kts | 355° |
| 2026-05-07 13:51 | -20.43021 | -40.25413 | 3166 ft | 183 kts | 356° |
| 2026-05-07 13:51 | -20.41789 | -40.25599 | 2994 ft | 174 kts | 355° |
| 2026-05-07 13:52 | -20.40616 | -40.25772 | 2835 ft | 164 kts | 356° |
| 2026-05-07 13:52 | -20.39511 | -40.25935 | 2706 ft | 158 kts | 356° |
| 2026-05-07 13:52 | -20.38412 | -40.26095 | 2478 ft | 160 kts | 355° |
| 2026-05-07 13:52 | -20.37310 | -40.26256 | 2233 ft | 159 kts | 355° |
| 2026-05-07 13:53 | -20.36209 | -40.26419 | 2009 ft | 158 kts | 355° |
| 2026-05-07 13:53 | -20.35118 | -40.26579 | 1779 ft | 158 kts | 355° |
| 2026-05-07 13:53 | -20.34044 | -40.26737 | 1573 ft | 150 kts | 354° |
| 2026-05-07 13:53 | -20.33049 | -40.26887 | 1335 ft | 138 kts | 355° |
| 2026-05-07 13:54 | -20.32125 | -40.27024 | 1137 ft | 131 kts | 354° |
| 2026-05-07 13:54 | -20.31219 | -40.27153 | 966 ft | 131 kts | 353° |
| 2026-05-07 13:54 | -20.30312 | -40.27285 | 781 ft | 131 kts | 353° |
| 2026-05-07 13:54 | -20.29414 | -40.27426 | 584 ft | 131 kts | 353° |
| 2026-05-07 13:55 | -20.28511 | -40.27550 | 415 ft | 130 kts | 354° |
| 2026-05-07 13:55 | -20.27606 | -40.27694 | 254 ft | 130 kts | 351° |
| 2026-05-07 13:55 | -20.26717 | -40.27832 | 73 ft | 129 kts | 352° |
| 2026-05-07 13:55 | -20.25858 | -40.27961 | 17 ft | 107 kts | 352° |
| 2026-05-07 13:56 | -20.25293 | -40.28044 | 17 ft | 57 kts | 352° |
| 2026-05-07 13:56 | -20.25029 | -40.28082 | 16 ft | 30 kts | 352° |
| 2026-05-07 13:56 | -20.24861 | -40.28108 | 15 ft | 14 kts | 358° |
| 2026-05-07 13:56 | -20.24782 | -40.28092 | 15 ft | 11 kts | 308° |
| 2026-05-07 13:57 | -20.24836 | -40.28119 | 15 ft | 12 kts | 167° |
| 2026-05-07 13:57 | -20.24932 | -40.28099 | 15 ft | 15 kts | 171° |
| 2026-05-07 13:57 | -20.25054 | -40.28080 | 16 ft | 19 kts | 172° |
| 2026-05-07 13:57 | -20.25186 | -40.28079 | 16 ft | 18 kts | 204° |
| 2026-05-07 13:58 | -20.25299 | -40.28151 | 17 ft | 19 kts | 212° |
| 2026-05-07 13:58 | -20.25421 | -40.28200 | 17 ft | 19 kts | 174° |
| 2026-05-07 13:58 | -20.25554 | -40.28180 | 17 ft | 19 kts | 172° |
| 2026-05-07 13:58 | -20.25688 | -40.28160 | 17 ft | 19 kts | 172° |
| 2026-05-07 13:59 | -20.25818 | -40.28141 | 17 ft | 18 kts | 171° |
| 2026-05-07 13:59 | -20.25942 | -40.28122 | 17 ft | 17 kts | 172° |
| 2026-05-07 13:59 | -20.26060 | -40.28105 | 17 ft | 16 kts | 172° |
| 2026-05-07 13:59 | -20.26171 | -40.28088 | 17 ft | 15 kts | 172° |
| 2026-05-07 14:00 | -20.26277 | -40.28073 | 18 ft | 14 kts | 172° |
| 2026-05-07 14:00 | -20.26378 | -40.28058 | 18 ft | 14 kts | 172° |
| 2026-05-07 14:00 | -20.26461 | -40.28046 | 18 ft | 8 kts | 172° |
| 2026-05-07 14:00 | -20.26489 | -40.28080 | 18 ft | 7 kts | 262° |
| 2026-05-07 14:01 | -20.26496 | -40.28135 | 18 ft | 6 kts | 262° |
| 2026-05-07 14:01 | -20.26500 | -40.28167 | 18 ft | 2 kts | 262° |
| 2026-05-07 14:01 | -20.26501 | -40.28174 | 18 ft | 0 kts | 262° |